Time;durP1;ratioP1;P1;durP2;ratioP2;P2;SDS_P1;SDS_P2;PMS_P1;PMS_P2;Temp;Humidity;BMP_temperature;BMP_pressure;BME280_temperature;BME280_humidity;BME280_pressure;Samples;Min_cycle;Max_cycle;Signal;HPM_P1;HPM_P2
2023/03/06 00:00:32;;;;;;;0.30;0.30;;;;;;;9.20;60.35;100885.97;5031973;28;20029;-65
2023/03/06 00:02:57;;;;;;;0.20;0.20;;;;;;;8.72;60.54;100880.22;5013288;28;20427;-65
2023/03/06 00:05:23;;;;;;;0.30;0.30;;;;;;;8.73;60.84;100869.28;5031054;28;20025;-67
2023/03/06 00:07:48;;;;;;;0.30;0.30;;;;;;;9.35;59.48;100867.72;5031428;28;20353;-66
2023/03/06 00:10:17;;;;;;;0.30;0.30;;;;;;;8.83;60.67;100875.00;5021322;28;20043;-65
2023/03/06 00:12:43;;;;;;;0.30;0.30;;;;;;;9.25;59.20;100873.56;5022131;28;20509;-65
2023/03/06 00:15:10;;;;;;;0.32;0.32;;;;;;;8.70;60.93;100874.25;5022396;28;20068;-64
2023/03/06 00:17:36;;;;;;;0.40;0.40;;;;;;;8.54;61.57;100855.94;5004101;28;20474;-65
2023/03/06 00:20:03;;;;;;;0.22;0.22;;;;;;;9.23;59.31;100853.34;5021091;28;20069;-67
2023/03/06 00:22:28;;;;;;;0.30;0.30;;;;;;;9.28;59.84;100851.66;5025238;28;20087;-65
2023/03/06 00:24:54;;;;;;;0.30;0.30;;;;;;;9.34;57.91;100847.28;5016692;28;20041;-65
2023/03/06 00:27:20;;;;;;;0.30;0.30;;;;;;;8.94;60.24;100861.97;5031126;28;20045;-66
2023/03/06 00:29:48;;;;;;;0.35;0.35;;;;;;;9.16;59.69;100857.94;5025865;28;20083;-65
2023/03/06 00:32:14;;;;;;;0.40;0.40;;;;;;;8.07;62.25;100845.53;5024121;28;20060;-65
2023/03/06 00:34:39;;;;;;;0.25;0.25;;;;;;;9.03;59.75;100853.47;5005013;28;20068;-65
2023/03/06 00:37:04;;;;;;;0.30;0.30;;;;;;;8.81;60.26;100850.28;5025716;28;20029;-64
2023/03/06 00:39:30;;;;;;;0.30;0.30;;;;;;;8.47;61.77;100844.47;5024140;28;20449;-64
2023/03/06 00:41:55;;;;;;;0.40;0.40;;;;;;;8.08;62.63;100836.50;5025264;28;20572;-66
2023/03/06 00:44:20;;;;;;;0.40;0.40;;;;;;;8.09;62.71;100836.28;5023250;28;20388;-66
2023/03/06 00:46:46;;;;;;;0.28;0.28;;;;;;;8.16;61.90;100838.91;5022110;28;20119;-65
2023/03/06 00:49:11;;;;;;;0.30;0.30;;;;;;;8.77;59.68;100835.66;5022651;28;20148;-66
2023/03/06 00:51:36;;;;;;;0.30;0.30;;;;;;;9.01;59.98;100834.09;5023198;28;20068;-67
2023/03/06 00:54:02;;;;;;;0.38;0.38;;;;;;;8.58;60.09;100828.53;5023597;28;20100;-66
2023/03/06 00:56:28;;;;;;;0.30;0.30;;;;;;;7.76;61.95;100824.81;5024475;28;20182;-65
2023/03/06 00:58:54;;;;;;;0.32;0.32;;;;;;;7.54;64.14;100831.38;5024175;28;20033;-64
2023/03/06 01:01:20;;;;;;;0.30;0.30;;;;;;;8.61;60.47;100821.91;5006586;28;20087;-65
2023/03/06 01:03:45;;;;;;;0.20;0.20;;;;;;;8.45;60.62;100825.91;5023659;28;20042;-65
2023/03/06 01:06:10;;;;;;;0.30;0.30;;;;;;;8.11;62.20;100823.50;5026701;28;20037;-64
2023/03/06 01:08:36;;;;;;;0.30;0.30;;;;;;;8.30;61.45;100825.34;5025070;28;20025;-66
2023/03/06 01:11:03;;;;;;;0.40;0.40;;;;;;;8.46;61.04;100816.00;5025364;28;20037;-66
2023/03/06 01:13:28;;;;;;;0.30;0.30;;;;;;;8.44;60.84;100808.19;5022947;28;20038;-66
2023/03/06 01:15:54;;;;;;;0.30;0.30;;;;;;;8.37;61.44;100810.06;5022885;28;20539;-66
2023/03/06 01:18:19;;;;;;;0.30;0.30;;;;;;;8.28;61.48;100807.84;5022098;28;20034;-64
2023/03/06 01:20:44;;;;;;;0.43;0.43;;;;;;;8.06;62.23;100806.44;5020701;28;20029;-65
2023/03/06 01:23:10;;;;;;;0.30;0.30;;;;;;;8.14;62.44;100803.56;5024200;28;20284;-67
2023/03/06 01:25:35;;;;;;;0.50;0.50;;;;;;;8.47;60.39;100798.94;5017545;28;20037;-65
2023/03/06 01:28:01;;;;;;;0.28;0.28;;;;;;;7.97;61.47;100795.97;5030855;28;20065;-65
2023/03/06 01:30:27;;;;;;;0.40;0.40;;;;;;;7.78;63.67;100794.13;5019407;28;20050;-66
2023/03/06 01:32:52;;;;;;;0.20;0.20;;;;;;;8.01;63.07;100799.03;5027293;28;20399;-65
2023/03/06 01:35:17;;;;;;;0.32;0.32;;;;;;;7.79;62.85;100794.97;5015756;28;20482;-65
2023/03/06 01:37:43;;;;;;;0.28;0.28;;;;;;;7.44;64.34;100791.72;5007494;28;20033;-65
2023/03/06 01:40:10;;;;;;;0.30;0.30;;;;;;;8.35;61.47;100790.75;5003112;28;20045;-66
2023/03/06 01:42:35;;;;;;;0.22;0.22;;;;;;;8.05;61.62;100784.22;5030515;28;20045;-64
2023/03/06 01:45:12;;;;;;;0.30;0.30;;;;;;;7.78;64.46;100785.31;5014481;28;20080;-65
2023/03/06 01:47:38;;;;;;;0.20;0.20;;;;;;;7.92;63.00;100785.06;5026253;28;20480;-65
2023/03/06 01:50:05;;;;;;;0.40;0.40;;;;;;;7.87;63.29;100787.53;5019843;28;20037;-65
2023/03/06 01:52:45;;;;;;;0.47;0.47;;;;;;;8.21;61.71;100781.06;5018235;28;20072;-67
2023/03/06 01:55:36;;;;;;;0.30;0.30;;;;;;;8.02;63.45;100778.47;5026787;28;20491;-66
2023/03/06 01:58:06;;;;;;;0.28;0.28;;;;;;;8.31;62.62;100767.28;5018987;28;20037;-66
2023/03/06 02:00:32;;;;;;;0.30;0.30;;;;;;;8.08;62.75;100773.06;4999742;28;20387;-66
2023/03/06 02:03:02;;;;;;;0.30;0.30;;;;;;;8.07;63.45;100765.25;5027063;28;20455;-66
2023/03/06 02:05:28;;;;;;;0.47;0.47;;;;;;;7.55;65.16;100758.97;5015237;28;20351;-66
2023/03/06 02:07:54;;;;;;;0.30;0.30;;;;;;;7.70;64.58;100753.44;5022929;28;20041;-64
2023/03/06 02:10:20;;;;;;;0.40;0.40;;;;;;;7.96;64.30;100748.81;5021996;28;20061;-65
2023/03/06 02:12:48;;;;;;;0.30;0.30;;;;;;;7.94;64.70;100750.88;5015895;28;20551;-66
2023/03/06 02:15:17;;;;;;;0.32;0.32;;;;;;;7.72;64.75;100743.34;5010832;28;20033;-66
2023/03/06 02:17:45;;;;;;;0.40;0.40;;;;;;;7.57;65.09;100742.72;5005417;28;20044;-66
2023/03/06 02:20:38;;;;;;;0.20;0.20;;;;;;;8.14;64.15;100742.78;5030284;28;20022;-65
2023/03/06 02:23:07;;;;;;;0.30;0.30;;;;;;;8.24;62.83;100740.50;5029538;28;20046;-65
2023/03/06 02:25:37;;;;;;;0.30;0.30;;;;;;;7.98;64.16;100737.91;5015128;28;20030;-64
2023/03/06 02:28:05;;;;;;;0.40;0.40;;;;;;;7.59;65.82;100748.69;5029747;28;20029;-66
2023/03/06 02:30:31;;;;;;;0.40;0.40;;;;;;;7.94;64.62;100739.34;5017602;28;20042;-66
2023/03/06 02:32:56;;;;;;;0.25;0.25;;;;;;;8.02;63.31;100729.25;5026422;28;20428;-66
2023/03/06 02:35:24;;;;;;;0.28;0.28;;;;;;;8.45;63.25;100731.38;5014180;28;20017;-64
2023/03/06 02:37:51;;;;;;;0.28;0.28;;;;;;;7.81;64.59;100729.53;5029367;28;20033;-64
2023/03/06 02:40:19;;;;;;;0.30;0.30;;;;;;;7.68;64.98;100718.88;5019529;28;20409;-67
2023/03/06 02:42:47;;;;;;;0.32;0.32;;;;;;;8.04;63.51;100717.53;5024859;28;20041;-65
2023/03/06 02:45:17;;;;;;;0.22;0.22;;;;;;;7.66;65.56;100712.09;5013534;28;20061;-67
2023/03/06 02:47:43;;;;;;;0.30;0.30;;;;;;;7.99;64.74;100716.31;5029950;28;20400;-67
2023/03/06 02:50:09;;;;;;;0.30;0.30;;;;;;;8.38;62.79;100709.16;5021245;28;20080;-65
2023/03/06 02:52:34;;;;;;;0.30;0.30;;;;;;;8.30;62.67;100706.72;5023244;28;20045;-65
2023/03/06 02:54:59;;;;;;;0.40;0.40;;;;;;;8.19;64.25;100697.50;5015602;28;20153;-65
2023/03/06 02:57:25;;;;;;;0.20;0.20;;;;;;;7.73;65.14;100696.81;5034132;28;20307;-66
2023/03/06 02:59:50;;;;;;;0.20;0.20;;;;;;;8.58;61.98;100697.31;5026480;28;20513;-65
2023/03/06 03:02:16;;;;;;;0.40;0.40;;;;;;;8.31;63.98;100690.47;5025353;28;20033;-65
2023/03/06 03:04:41;;;;;;;0.30;0.30;;;;;;;8.44;62.19;100685.03;5033931;28;20073;-65
2023/03/06 03:07:07;;;;;;;0.35;0.35;;;;;;;8.25;63.35;100679.78;5017453;28;20509;-65
2023/03/06 03:09:35;;;;;;;0.40;0.40;;;;;;;8.32;63.49;100676.03;5029268;28;20545;-65
2023/03/06 03:12:02;;;;;;;0.20;0.20;;;;;;;8.31;63.39;100678.94;5022625;28;20423;-66
2023/03/06 03:14:27;;;;;;;0.30;0.30;;;;;;;8.37;63.68;100678.06;5034475;28;20056;-66
2023/03/06 03:16:52;;;;;;;0.28;0.28;;;;;;;8.05;65.36;100674.50;5023764;28;20116;-64
2023/03/06 03:19:18;;;;;;;0.30;0.30;;;;;;;8.25;63.25;100677.94;5030979;28;20520;-65
2023/03/06 03:21:43;;;;;;;0.30;0.30;;;;;;;8.13;64.49;100670.75;5019666;28;20120;-64
2023/03/06 03:24:09;;;;;;;0.30;0.30;;;;;;;8.19;64.28;100669.91;5024275;28;20061;-65
2023/03/06 03:26:34;;;;;;;0.28;0.28;;;;;;;7.99;64.75;100665.47;5026926;28;20112;-65
2023/03/06 03:28:59;;;;;;;0.20;0.20;;;;;;;7.87;64.47;100671.69;5033169;28;20033;-64
2023/03/06 03:31:25;;;;;;;0.45;0.45;;;;;;;8.14;64.89;100659.03;5017082;28;20128;-65
2023/03/06 03:33:50;;;;;;;0.30;0.30;;;;;;;8.38;64.46;100663.63;5026307;28;20521;-66
2023/03/06 03:36:15;;;;;;;0.20;0.20;;;;;;;7.94;66.22;100656.41;5023997;28;20136;-66
2023/03/06 03:38:41;;;;;;;0.30;0.30;;;;;;;8.37;64.85;100651.31;5032968;28;20470;-66
2023/03/06 03:41:06;;;;;;;0.30;0.30;;;;;;;8.19;65.54;100656.50;5016838;28;20196;-66
2023/03/06 03:43:31;;;;;;;0.40;0.40;;;;;;;8.25;66.12;100647.66;5028501;28;20030;-65
2023/03/06 03:45:57;;;;;;;0.40;0.40;;;;;;;8.30;65.02;100645.97;5021160;28;20034;-67
2023/03/06 03:48:22;;;;;;;0.20;0.20;;;;;;;8.12;65.92;100635.13;5021725;28;20211;-65
2023/03/06 03:50:47;;;;;;;0.30;0.30;;;;;;;7.99;66.66;100633.38;5028166;28;20033;-65
2023/03/06 03:53:13;;;;;;;0.20;0.20;;;;;;;8.69;63.40;100632.31;5017256;28;20022;-65
2023/03/06 03:55:38;;;;;;;0.22;0.22;;;;;;;7.72;67.66;100626.50;5027406;28;20041;-65
2023/03/06 03:58:04;;;;;;;0.40;0.40;;;;;;;8.10;66.88;100639.06;5022150;28;20614;-64
2023/03/06 04:00:30;;;;;;;0.40;0.40;;;;;;;8.16;66.88;100640.88;5033020;28;20489;-67
2023/03/06 04:02:55;;;;;;;0.30;0.30;;;;;;;8.09;66.40;100638.25;5016944;28;20034;-64
2023/03/06 04:05:21;;;;;;;0.30;0.30;;;;;;;8.58;65.61;100626.84;5032394;28;20461;-65
2023/03/06 04:07:46;;;;;;;0.20;0.20;;;;;;;8.96;64.30;100624.06;5026174;28;20121;-65
2023/03/06 04:10:12;;;;;;;0.30;0.30;;;;;;;9.06;63.25;100635.13;5022905;28;20131;-65
2023/03/06 04:12:37;;;;;;;0.30;0.30;;;;;;;9.05;63.91;100625.41;5032537;28;20049;-65
2023/03/06 04:15:04;;;;;;;0.30;0.30;;;;;;;8.93;64.37;100622.66;5029311;28;20400;-65
2023/03/06 04:17:32;;;;;;;0.30;0.30;;;;;;;9.43;62.56;100628.75;5026180;28;20489;-66
2023/03/06 04:19:59;;;;;;;0.40;0.40;;;;;;;8.96;64.10;100630.25;5024391;28;20084;-64
2023/03/06 04:22:24;;;;;;;0.20;0.20;;;;;;;8.37;66.74;100640.59;5006230;28;20045;-66
2023/03/06 04:24:50;;;;;;;0.40;0.40;;;;;;;8.71;65.68;100629.41;5017213;28;20591;-67
2023/03/06 04:27:15;;;;;;;0.25;0.25;;;;;;;9.04;65.02;100629.94;5030821;28;20034;-64
2023/03/06 04:29:40;;;;;;;0.30;0.30;;;;;;;8.36;66.95;100638.94;5027060;28;20026;-66
2023/03/06 04:32:06;;;;;;;0.20;0.20;;;;;;;8.51;65.59;100629.56;5003801;28;20048;-65
2023/03/06 04:34:31;;;;;;;0.35;0.35;;;;;;;8.37;66.71;100632.56;5001424;28;20129;-66
2023/03/06 04:36:56;;;;;;;0.60;0.60;;;;;;;9.23;63.44;100626.28;5028298;28;20136;-66
2023/03/06 04:39:22;;;;;;;0.30;0.30;;;;;;;9.50;62.60;100616.09;5028216;28;20038;-64
2023/03/06 04:41:47;;;;;;;0.30;0.30;;;;;;;9.91;62.48;100615.38;5018810;28;20037;-66
2023/03/06 04:44:13;;;;;;;0.30;0.30;;;;;;;9.84;61.73;100617.34;5022681;28;20168;-66
2023/03/06 04:46:38;;;;;;;0.30;0.30;;;;;;;9.91;61.96;100613.53;5025770;28;20415;-67
2023/03/06 04:49:03;;;;;;;0.40;0.40;;;;;;;9.72;63.03;100610.06;5015416;28;20128;-66
2023/03/06 04:51:29;;;;;;;0.40;0.40;;;;;;;10.00;62.27;100596.06;5027637;28;20087;-65
2023/03/06 04:53:54;;;;;;;0.30;0.30;;;;;;;10.21;61.50;100618.94;5019620;28;20112;-65
2023/03/06 04:56:20;;;;;;;0.30;0.30;;;;;;;10.16;61.41;100595.44;5031857;28;20069;-67
2023/03/06 04:58:45;;;;;;;0.30;0.30;;;;;;;9.79;62.28;100590.38;5017316;28;20038;-65
2023/03/06 05:01:11;;;;;;;0.30;0.30;;;;;;;9.93;61.66;100598.00;5027492;28;20041;-65
2023/03/06 05:03:37;;;;;;;0.25;0.25;;;;;;;9.46;64.66;100590.75;5011836;28;20046;-66
2023/03/06 05:06:03;;;;;;;0.30;0.30;;;;;;;9.78;62.90;100586.88;5020270;28;20037;-66
2023/03/06 05:08:28;;;;;;;0.32;0.32;;;;;;;9.70;63.00;100587.16;5030435;28;20034;-65
2023/03/06 05:10:56;;;;;;;0.20;0.20;;;;;;;8.56;65.92;100583.41;5031225;28;20082;-66
2023/03/06 05:13:22;;;;;;;0.20;0.20;;;;;;;9.17;64.80;100589.63;5014717;28;20041;-64
2023/03/06 05:15:47;;;;;;;0.40;0.40;;;;;;;9.01;65.04;100575.97;5030487;28;20041;-66
2023/03/06 05:18:12;;;;;;;0.40;0.40;;;;;;;9.24;64.34;100574.28;5024606;28;20045;-65
2023/03/06 05:20:38;;;;;;;0.40;0.40;;;;;;;8.66;66.17;100575.69;5018477;28;20040;-65
2023/03/06 05:23:03;;;;;;;0.22;0.22;;;;;;;8.77;66.91;100580.31;5027883;28;20505;-65
2023/03/06 05:25:28;;;;;;;0.45;0.45;;;;;;;9.77;63.07;100571.78;5015689;28;20516;-66
2023/03/06 05:27:54;;;;;;;0.20;0.20;;;;;;;9.13;65.36;100576.91;5030899;28;20040;-65
2023/03/06 05:30:21;;;;;;;0.30;0.30;;;;;;;9.70;63.49;100565.72;5020086;28;20034;-64
2023/03/06 05:32:47;;;;;;;0.40;0.40;;;;;;;9.08;65.04;100563.34;5026179;28;20060;-65
2023/03/06 05:35:18;;;;;;;0.40;0.40;;;;;;;9.63;63.78;100567.66;5015376;28;20116;-66
2023/03/06 05:37:44;;;;;;;0.40;0.40;;;;;;;9.15;64.99;100566.75;5030449;28;20372;-66
2023/03/06 05:40:10;;;;;;;0.32;0.32;;;;;;;8.52;66.27;100564.28;5023808;28;20045;-66
2023/03/06 05:42:35;;;;;;;0.30;0.30;;;;;;;9.72;62.76;100567.13;5025424;28;20033;-65
2023/03/06 05:45:03;;;;;;;0.40;0.40;;;;;;;9.60;63.05;100566.25;5026684;28;20075;-66
2023/03/06 05:47:29;;;;;;;0.28;0.28;;;;;;;9.90;61.43;100562.75;5024534;28;20026;-64
2023/03/06 05:49:54;;;;;;;0.20;0.20;;;;;;;9.77;61.96;100573.69;5026748;28;20049;-65
2023/03/06 05:52:19;;;;;;;0.20;0.20;;;;;;;10.00;60.75;100563.03;5008375;28;20086;-64
2023/03/06 05:54:49;;;;;;;0.30;0.30;;;;;;;10.28;60.53;100563.28;5008671;28;20034;-65
2023/03/06 05:57:15;;;;;;;0.30;0.30;;;;;;;10.29;59.50;100565.72;5025037;28;20049;-65
2023/03/06 05:59:40;;;;;;;0.30;0.30;;;;;;;10.50;59.72;100562.50;5024252;28;20041;-65
2023/03/06 06:02:05;;;;;;;0.30;0.30;;;;;;;9.15;62.71;100575.63;5026454;28;20041;-65
2023/03/06 06:04:31;;;;;;;0.30;0.30;;;;;;;9.16;65.03;100589.88;5026944;28;20034;-69
2023/03/06 06:06:59;;;;;;;0.22;0.22;;;;;;;9.02;65.32;100585.69;5028454;28;20037;-66
2023/03/06 06:09:25;;;;;;;0.30;0.30;;;;;;;9.21;63.17;100579.28;5013711;28;20091;-66
2023/03/06 06:11:52;;;;;;;0.30;0.30;;;;;;;10.03;61.06;100584.03;5023414;28;20026;-65
2023/03/06 06:14:17;;;;;;;0.22;0.22;;;;;;;10.09;61.01;100573.22;5021728;28;20025;-66
2023/03/06 06:16:43;;;;;;;0.35;0.35;;;;;;;10.17;60.31;100578.31;5025810;28;20073;-66
2023/03/06 06:19:08;;;;;;;0.20;0.20;;;;;;;9.72;62.04;100587.75;5026925;28;20675;-67
2023/03/06 06:21:34;;;;;;;0.22;0.22;;;;;;;9.28;62.97;100578.16;5015093;28;20053;-67
2023/03/06 06:23:59;;;;;;;0.28;0.28;;;;;;;9.15;63.29;100585.53;5022017;28;20080;-65
2023/03/06 06:26:25;;;;;;;0.28;0.28;;;;;;;9.17;64.31;100581.59;5022267;28;20021;-66
2023/03/06 06:28:50;;;;;;;0.30;0.30;;;;;;;9.28;63.79;100585.38;5030125;28;20048;-65
2023/03/06 06:31:15;;;;;;;0.30;0.30;;;;;;;8.79;65.39;100583.59;4997662;28;20045;-66
2023/03/06 06:33:42;;;;;;;0.30;0.30;;;;;;;9.36;64.21;100579.72;5029478;28;20485;-66
2023/03/06 06:36:18;;;;;;;0.28;0.28;;;;;;;10.15;61.13;100577.72;5010296;28;20038;-66
2023/03/06 06:38:44;;;;;;;0.20;0.20;;;;;;;9.43;62.14;100592.03;5027003;28;20017;-65
2023/03/06 06:41:09;;;;;;;0.38;0.38;;;;;;;9.09;62.81;100589.09;5029182;28;20040;-65
2023/03/06 06:43:35;;;;;;;0.30;0.30;;;;;;;9.17;62.93;100594.16;5029374;28;20036;-66
2023/03/06 06:46:01;;;;;;;0.22;0.22;;;;;;;8.82;63.51;100604.63;5027173;28;20464;-65
2023/03/06 06:48:26;;;;;;;0.20;0.20;;;;;;;7.76;67.04;100603.59;5028849;28;20033;-66
2023/03/06 06:50:55;;;;;;;0.30;0.30;;;;;;;9.03;63.91;100608.75;5029079;28;20048;-65
2023/03/06 06:53:21;;;;;;;0.30;0.30;;;;;;;8.99;62.56;100608.38;5019649;28;20454;-66
2023/03/06 06:55:46;;;;;;;0.30;0.30;;;;;;;9.11;62.94;100601.25;5024106;28;20149;-65
2023/03/06 06:58:12;;;;;;;0.28;0.28;;;;;;;9.04;63.71;100603.16;5013789;28;20538;-65
2023/03/06 07:00:38;;;;;;;0.20;0.20;;;;;;;9.49;61.67;100601.84;5018445;28;20091;-65
2023/03/06 07:03:03;;;;;;;0.30;0.30;;;;;;;9.77;60.60;100594.09;5026820;28;20394;-65
2023/03/06 07:05:29;;;;;;;0.30;0.30;;;;;;;7.85;65.46;100601.53;5021131;28;20105;-66
2023/03/06 07:07:54;;;;;;;0.20;0.20;;;;;;;8.38;64.48;100594.84;5019564;28;20030;-68
2023/03/06 07:10:20;;;;;;;0.38;0.38;;;;;;;9.13;61.87;100595.66;5019022;28;20037;-66
2023/03/06 07:12:45;;;;;;;0.28;0.28;;;;;;;9.31;62.13;100593.81;5020655;28;20030;-66
2023/03/06 07:15:13;;;;;;;0.30;0.30;;;;;;;9.18;62.46;100601.97;5018504;28;20177;-65
2023/03/06 07:17:39;;;;;;;0.30;0.30;;;;;;;9.69;60.39;100607.81;5021299;28;20056;-66
2023/03/06 07:20:05;;;;;;;0.30;0.30;;;;;;;9.68;60.37;100608.88;5021107;28;20071;-65
2023/03/06 07:22:31;;;;;;;0.30;0.30;;;;;;;9.15;62.51;100617.69;5030017;28;20129;-65
2023/03/06 07:24:57;;;;;;;0.20;0.20;;;;;;;9.18;62.41;100617.28;5022250;28;20097;-65
2023/03/06 07:27:24;;;;;;;0.30;0.30;;;;;;;9.43;61.83;100624.22;5022850;28;20041;-66
2023/03/06 07:29:50;;;;;;;0.45;0.45;;;;;;;9.40;61.98;100616.59;5029997;28;20065;-66
2023/03/06 07:32:15;;;;;;;0.32;0.32;;;;;;;9.26;63.02;100623.16;5030452;28;20108;-66
2023/03/06 07:34:41;;;;;;;0.32;0.32;;;;;;;9.45;62.71;100632.03;5020650;28;20148;-66
2023/03/06 07:37:07;;;;;;;0.30;0.30;;;;;;;8.58;64.90;100632.22;5013230;28;20155;-66
2023/03/06 07:39:32;;;;;;;0.20;0.20;;;;;;;8.59;65.91;100636.50;5029959;28;20136;-68
2023/03/06 07:41:58;;;;;;;0.30;0.30;;;;;;;8.86;64.51;100630.72;5032856;28;20029;-67
2023/03/06 07:44:23;;;;;;;0.30;0.30;;;;;;;8.17;67.53;100647.88;5033858;28;20041;-66
2023/03/06 07:46:48;;;;;;;0.30;0.30;;;;;;;8.15;67.07;100642.75;5033063;28;20076;-68
2023/03/06 07:49:14;;;;;;;0.40;0.40;;;;;;;8.66;65.77;100642.66;5033066;28;20123;-67
2023/03/06 07:51:39;;;;;;;0.30;0.30;;;;;;;8.45;66.58;100648.38;5027398;28;20244;-65
2023/03/06 07:54:04;;;;;;;0.30;0.30;;;;;;;9.03;64.90;100643.56;5025350;28;20037;-66
2023/03/06 07:56:30;;;;;;;0.20;0.20;;;;;;;9.56;63.35;100645.53;5024390;28;20049;-66
2023/03/06 07:58:55;;;;;;;0.30;0.30;;;;;;;9.84;61.79;100644.19;5025427;28;20623;-65
2023/03/06 08:01:22;;;;;;;0.30;0.30;;;;;;;8.31;65.82;100649.47;5022166;28;20064;-66
2023/03/06 08:03:48;;;;;;;0.30;0.30;;;;;;;9.61;62.51;100648.34;5023138;28;20110;-65
2023/03/06 08:06:20;;;;;;;0.30;0.30;;;;;;;9.96;61.13;100659.31;5031860;28;20558;-66
2023/03/06 08:08:46;;;;;;;0.30;0.30;;;;;;;10.36;59.85;100654.25;5030585;28;20038;-65
2023/03/06 08:11:14;;;;;;;0.20;0.20;;;;;;;9.62;62.20;100654.53;5029359;28;20029;-66
2023/03/06 08:13:39;;;;;;;0.20;0.20;;;;;;;10.27;60.63;100655.63;5032685;28;20060;-65
2023/03/06 08:16:05;;;;;;;0.30;0.30;;;;;;;9.63;62.47;100656.19;5023344;28;20033;-67
2023/03/06 08:18:32;;;;;;;0.20;0.20;;;;;;;9.72;61.48;100652.16;5028865;28;20148;-67
2023/03/06 08:21:06;;;;;;;0.30;0.30;;;;;;;10.29;61.51;100653.53;5032639;28;20425;-69
2023/03/06 08:23:32;;;;;;;0.20;0.20;;;;;;;10.61;59.15;100652.25;5033478;28;20039;-66
2023/03/06 08:25:59;;;;;;;0.20;0.20;;;;;;;9.33;62.31;100652.59;5032203;28;20052;-65
2023/03/06 08:28:27;;;;;;;0.20;0.20;;;;;;;10.29;59.58;100651.66;5029111;28;20567;-65
2023/03/06 08:30:53;;;;;;;0.30;0.30;;;;;;;10.91;58.63;100650.28;5032271;28;20037;-66
2023/03/06 08:33:18;;;;;;;0.50;0.50;;;;;;;10.38;60.50;100650.28;5032804;28;20037;-64
2023/03/06 08:35:43;;;;;;;0.28;0.28;;;;;;;10.19;60.40;100654.06;5032285;28;20040;-66
2023/03/06 08:38:09;;;;;;;0.30;0.30;;;;;;;10.10;60.23;100647.34;5010970;28;20060;-66
2023/03/06 08:40:34;;;;;;;0.40;0.40;;;;;;;10.46;58.46;100649.97;5012617;28;20045;-67
2023/03/06 08:42:59;;;;;;;0.30;0.30;;;;;;;10.19;58.81;100655.94;5012543;28;20038;-65
2023/03/06 08:45:25;;;;;;;0.40;0.40;;;;;;;9.71;60.04;100654.00;5012363;28;20508;-66
2023/03/06 08:47:50;;;;;;;0.30;0.30;;;;;;;10.37;58.72;100651.34;5012226;28;20512;-67
2023/03/06 08:50:16;;;;;;;0.32;0.32;;;;;;;10.03;60.24;100651.16;5013031;28;20113;-66
2023/03/06 08:52:41;;;;;;;0.40;0.40;;;;;;;9.94;59.79;100656.03;5016303;28;20065;-65
2023/03/06 08:55:07;;;;;;;0.20;0.20;;;;;;;11.05;55.89;100648.19;5032979;28;20073;-67
2023/03/06 08:57:32;;;;;;;0.35;0.35;;;;;;;11.20;55.18;100654.75;5032776;28;20059;-67
2023/03/06 08:59:58;;;;;;;0.30;0.30;;;;;;;10.94;54.45;100651.72;5032589;28;20040;-66
2023/03/06 09:02:23;;;;;;;0.25;0.25;;;;;;;11.76;53.87;100640.69;5033263;28;20108;-66
2023/03/06 09:04:48;;;;;;;0.38;0.38;;;;;;;12.02;53.24;100642.88;5032431;28;20107;-66
2023/03/06 09:07:14;;;;;;;0.20;0.20;;;;;;;11.63;53.51;100650.88;5031875;28;20036;-66
2023/03/06 09:09:39;;;;;;;0.35;0.35;;;;;;;11.86;53.79;100637.41;5031678;28;20120;-66
2023/03/06 09:12:04;;;;;;;0.40;0.40;;;;;;;11.16;56.59;100644.72;5031695;28;20116;-65
2023/03/06 09:14:30;;;;;;;0.30;0.30;;;;;;;10.80;57.11;100650.28;5032291;28;20121;-66
2023/03/06 09:16:55;;;;;;;0.20;0.20;;;;;;;11.18;55.02;100645.31;5015518;28;20532;-67
2023/03/06 09:19:21;;;;;;;0.30;0.30;;;;;;;11.86;53.75;100646.31;5011848;28;20111;-66
2023/03/06 09:21:47;;;;;;;0.38;0.38;;;;;;;12.17;50.97;100645.84;5011932;28;20042;-67
2023/03/06 09:24:12;;;;;;;0.40;0.40;;;;;;;10.91;55.43;100652.19;5011856;28;20034;-66
2023/03/06 09:26:38;;;;;;;0.30;0.30;;;;;;;11.79;53.94;100645.63;5019171;28;20033;-66
2023/03/06 09:29:04;;;;;;;0.28;0.28;;;;;;;11.48;52.96;100652.19;5031405;28;20029;-65
2023/03/06 09:31:30;;;;;;;0.40;0.40;;;;;;;11.22;53.28;100652.66;5031734;28;20501;-66
2023/03/06 09:33:57;;;;;;;0.20;0.20;;;;;;;11.18;53.27;100643.41;5032439;28;20029;-66
2023/03/06 09:36:22;;;;;;;0.30;0.30;;;;;;;11.50;52.36;100651.94;5031813;28;20041;-67
2023/03/06 09:38:49;;;;;;;0.28;0.28;;;;;;;10.79;53.21;100648.66;5017165;28;20032;-67
2023/03/06 09:41:25;;;;;;;0.30;0.30;;;;;;;11.37;54.35;100653.03;5012190;28;20029;-65
2023/03/06 09:43:54;;;;;;;0.28;0.28;;;;;;;11.41;52.54;100654.19;5011621;28;20038;-67
2023/03/06 09:46:35;;;;;;;0.30;0.30;;;;;;;10.48;54.10;100650.56;5011449;28;20076;-67
2023/03/06 09:49:12;;;;;;;0.20;0.20;;;;;;;11.26;52.18;100655.72;5016562;28;20049;-66
2023/03/06 09:51:47;;;;;;;0.30;0.30;;;;;;;12.02;50.44;100648.25;5031261;28;20401;-66
2023/03/06 09:54:14;;;;;;;0.20;0.20;;;;;;;11.74;51.35;100650.06;5031263;28;20045;-65
2023/03/06 09:56:46;;;;;;;0.20;0.20;;;;;;;11.38;53.27;100651.94;5031518;28;20049;-65
2023/03/06 09:59:22;;;;;;;0.30;0.30;;;;;;;11.33;53.29;100651.84;5031449;28;20042;-65
2023/03/06 10:02:13;;;;;;;0.20;0.20;;;;;;;10.57;54.33;100653.75;5030707;28;20033;-65
2023/03/06 10:04:42;;;;;;;0.40;0.40;;;;;;;11.08;53.70;100653.13;5030497;28;20048;-67
2023/03/06 10:07:13;;;;;;;0.28;0.28;;;;;;;11.39;51.47;100642.84;5030949;28;20041;-65
2023/03/06 10:10:01;;;;;;;0.20;0.20;;;;;;;12.03;49.80;100647.19;5030497;28;20402;-66
2023/03/06 10:12:31;;;;;;;0.28;0.28;;;;;;;11.52;52.80;100641.75;5030685;28;20037;-66
2023/03/06 10:15:12;;;;;;;0.30;0.30;;;;;;;12.34;50.34;100648.59;5030546;28;20549;-66
2023/03/06 10:17:39;;;;;;;0.20;0.20;;;;;;;11.27;52.27;100652.78;5011204;28;20033;-66
2023/03/06 10:20:16;;;;;;;0.20;0.20;;;;;;;11.87;50.73;100647.13;5009306;28;20033;-67
2023/03/06 10:22:54;;;;;;;0.40;0.40;;;;;;;11.09;51.12;100641.31;5010644;28;20116;-65
2023/03/06 10:25:37;;;;;;;0.30;0.30;;;;;;;11.14;51.59;100650.34;5010799;28;20120;-66
2023/03/06 10:28:14;;;;;;;0.30;0.30;;;;;;;12.28;50.94;100642.28;5029055;28;20115;-65
2023/03/06 10:31:00;;;;;;;0.20;0.20;;;;;;;12.32;48.37;100645.31;5030425;28;20029;-66
2023/03/06 10:33:40;;;;;;;0.38;0.38;;;;;;;11.82;49.50;100652.38;5030225;28;20045;-66
2023/03/06 10:36:12;;;;;;;0.30;0.30;;;;;;;11.56;47.53;100648.31;5030251;28;20033;-66
2023/03/06 10:38:37;;;;;;;0.20;0.20;;;;;;;12.01;47.71;100653.88;5031138;28;20014;-64
2023/03/06 10:41:12;;;;;;;0.20;0.20;;;;;;;12.31;45.86;100655.28;5030239;28;20088;-65
2023/03/06 10:43:40;;;;;;;0.30;0.30;;;;;;;11.75;45.38;100649.84;5030281;28;20037;-65
2023/03/06 10:46:08;;;;;;;0.20;0.20;;;;;;;11.62;46.52;100649.22;5029947;28;20095;-65
2023/03/06 10:48:36;;;;;;;0.40;0.40;;;;;;;12.39;46.21;100640.59;5012318;28;20048;-65
2023/03/06 10:51:22;;;;;;;0.45;0.45;;;;;;;12.08;48.03;100651.84;5030255;28;20026;-66
2023/03/06 10:54:00;;;;;;;0.20;0.20;;;;;;;12.01;47.06;100643.09;5030491;28;20034;-65
2023/03/06 10:56:37;;;;;;;0.25;0.25;;;;;;;12.44;45.35;100650.66;5030393;28;20057;-66
2023/03/06 10:59:10;;;;;;;0.40;0.40;;;;;;;12.38;45.30;100655.16;5030232;28;20381;-66
2023/03/06 11:01:36;;;;;;;0.28;0.28;;;;;;;11.29;49.06;100645.31;5029865;28;20076;-65
2023/03/06 11:04:26;;;;;;;0.40;0.40;;;;;;;11.60;50.29;100651.34;5030098;28;20055;-68
2023/03/06 11:07:11;;;;;;;0.20;0.20;;;;;;;12.09;48.41;100653.47;5030227;28;20053;-67
2023/03/06 11:09:36;;;;;;;0.30;0.30;;;;;;;11.89;46.85;100639.63;5029938;28;20460;-67
2023/03/06 11:12:16;;;;;;;0.20;0.20;;;;;;;11.64;49.36;100639.88;5030078;28;20056;-66
2023/03/06 11:14:41;;;;;;;0.20;0.20;;;;;;;11.91;46.11;100640.22;5030492;28;20044;-65
2023/03/06 11:17:25;;;;;;;0.30;0.30;;;;;;;13.15;44.87;100631.91;5007103;28;20485;-67
2023/03/06 11:20:05;;;;;;;0.20;0.20;;;;;;;12.98;44.16;100631.09;5013823;28;20030;-66
2023/03/06 11:22:33;;;;;;;0.10;0.10;;;;;;;12.97;42.90;100635.66;5014099;28;20057;-65
2023/03/06 11:24:58;;;;;;;0.20;0.20;;;;;;;11.86;46.16;100629.31;5013818;28;20553;-67
2023/03/06 11:27:33;;;;;;;0.43;0.43;;;;;;;11.83;45.71;100630.59;5026999;28;20051;-64
2023/03/06 11:30:04;;;;;;;0.40;0.40;;;;;;;11.83;45.55;100632.50;5033673;28;20025;-67
2023/03/06 11:32:44;;;;;;;0.22;0.22;;;;;;;11.92;46.40;100629.19;5033946;28;20465;-65